sensor_id;sensor_type;location;lat;lon;timestamp;P1;durP1;ratioP1;P2;durP2;ratioP2
63492;SDS011;49638;47.526;10.028;2022-11-15T00:00:37;2.15;;;1.45;;
63492;SDS011;49638;47.526;10.028;2022-11-15T00:03:38;1.80;;;1.50;;
63492;SDS011;49638;47.526;10.028;2022-11-15T00:06:38;2.00;;;1.27;;
63492;SDS011;49638;47.526;10.028;2022-11-15T00:09:38;2.58;;;1.50;;
63492;SDS011;49638;47.526;10.028;2022-11-15T00:12:41;2.25;;;1.40;;
63492;SDS011;49638;47.526;10.028;2022-11-15T00:15:41;3.13;;;1.38;;
63492;SDS011;49638;47.526;10.028;2022-11-15T00:18:42;3.08;;;1.45;;
63492;SDS011;49638;47.526;10.028;2022-11-15T00:21:42;2.67;;;1.45;;
63492;SDS011;49638;47.526;10.028;2022-11-15T00:24:42;4.53;;;1.70;;
63492;SDS011;49638;47.526;10.028;2022-11-15T00:27:43;2.70;;;1.50;;
63492;SDS011;49638;47.526;10.028;2022-11-15T00:30:43;2.83;;;1.30;;
63492;SDS011;49638;47.526;10.028;2022-11-15T00:33:43;6.57;;;1.30;;
63492;SDS011;49638;47.526;10.028;2022-11-15T00:36:44;1.80;;;1.55;;
63492;SDS011;49638;47.526;10.028;2022-11-15T00:39:44;3.13;;;1.40;;
63492;SDS011;49638;47.526;10.028;2022-11-15T00:42:45;4.93;;;1.63;;
63492;SDS011;49638;47.526;10.028;2022-11-15T00:45:45;3.80;;;1.50;;
63492;SDS011;49638;47.526;10.028;2022-11-15T00:48:45;3.85;;;1.77;;
63492;SDS011;49638;47.526;10.028;2022-11-15T00:51:46;4.60;;;1.40;;
63492;SDS011;49638;47.526;10.028;2022-11-15T00:54:46;3.67;;;1.80;;
63492;SDS011;49638;47.526;10.028;2022-11-15T00:57:46;4.03;;;1.60;;
63492;SDS011;49638;47.526;10.028;2022-11-15T01:00:47;4.43;;;1.77;;
63492;SDS011;49638;47.526;10.028;2022-11-15T01:03:47;2.28;;;1.33;;
63492;SDS011;49638;47.526;10.028;2022-11-15T01:06:47;4.13;;;1.77;;
63492;SDS011;49638;47.526;10.028;2022-11-15T01:09:47;3.40;;;1.60;;
63492;SDS011;49638;47.526;10.028;2022-11-15T01:12:48;4.03;;;1.58;;
63492;SDS011;49638;47.526;10.028;2022-11-15T01:15:48;3.35;;;1.70;;
63492;SDS011;49638;47.526;10.028;2022-11-15T01:18:50;4.25;;;1.40;;
63492;SDS011;49638;47.526;10.028;2022-11-15T01:21:50;3.97;;;1.55;;
63492;SDS011;49638;47.526;10.028;2022-11-15T01:24:51;4.78;;;1.48;;
63492;SDS011;49638;47.526;10.028;2022-11-15T01:27:51;2.85;;;1.58;;
63492;SDS011;49638;47.526;10.028;2022-11-15T01:30:51;1.63;;;1.30;;
63492;SDS011;49638;47.526;10.028;2022-11-15T01:33:52;3.85;;;1.40;;
63492;SDS011;49638;47.526;10.028;2022-11-15T01:36:52;2.25;;;1.40;;
63492;SDS011;49638;47.526;10.028;2022-11-15T01:39:52;3.50;;;1.50;;
63492;SDS011;49638;47.526;10.028;2022-11-15T01:42:53;4.10;;;1.63;;
63492;SDS011;49638;47.526;10.028;2022-11-15T01:45:55;2.67;;;1.45;;
63492;SDS011;49638;47.526;10.028;2022-11-15T01:49:02;3.05;;;1.50;;
63492;SDS011;49638;47.526;10.028;2022-11-15T01:52:07;6.00;;;1.88;;
63492;SDS011;49638;47.526;10.028;2022-11-15T01:55:11;3.78;;;1.50;;
63492;SDS011;49638;47.526;10.028;2022-11-15T01:58:18;4.93;;;1.60;;
63492;SDS011;49638;47.526;10.028;2022-11-15T02:01:18;2.20;;;1.63;;
63492;SDS011;49638;47.526;10.028;2022-11-15T02:04:23;2.42;;;1.40;;
63492;SDS011;49638;47.526;10.028;2022-11-15T02:07:26;2.58;;;1.63;;
63492;SDS011;49638;47.526;10.028;2022-11-15T02:10:28;2.67;;;1.77;;
63492;SDS011;49638;47.526;10.028;2022-11-15T02:13:29;2.55;;;1.58;;
63492;SDS011;49638;47.526;10.028;2022-11-15T02:37:00;3.10;;;1.60;;
63492;SDS011;49638;47.526;10.028;2022-11-15T02:40:11;4.28;;;1.63;;
63492;SDS011;49638;47.526;10.028;2022-11-15T02:43:20;4.88;;;1.50;;
63492;SDS011;49638;47.526;10.028;2022-11-15T02:46:46;2.90;;;1.60;;
63492;SDS011;49638;47.526;10.028;2022-11-15T02:50:13;3.30;;;1.50;;
63492;SDS011;49638;47.526;10.028;2022-11-15T02:53:17;2.58;;;1.70;;
63492;SDS011;49638;47.526;10.028;2022-11-15T02:56:17;1.98;;;1.65;;
63492;SDS011;49638;47.526;10.028;2022-11-15T03:06:18;3.42;;;1.75;;
63492;SDS011;49638;47.526;10.028;2022-11-15T03:09:30;4.35;;;1.30;;
63492;SDS011;49638;47.526;10.028;2022-11-15T03:12:44;4.00;;;1.73;;
63492;SDS011;49638;47.526;10.028;2022-11-15T03:15:57;2.83;;;1.70;;
63492;SDS011;49638;47.526;10.028;2022-11-15T03:19:07;2.35;;;1.50;;
63492;SDS011;49638;47.526;10.028;2022-11-15T03:22:11;2.25;;;1.48;;
63492;SDS011;49638;47.526;10.028;2022-11-15T03:25:17;2.30;;;1.50;;
63492;SDS011;49638;47.526;10.028;2022-11-15T03:28:22;1.92;;;1.33;;
63492;SDS011;49638;47.526;10.028;2022-11-15T03:31:29;1.80;;;1.30;;
63492;SDS011;49638;47.526;10.028;2022-11-15T03:34:48;4.40;;;1.80;;
63492;SDS011;49638;47.526;10.028;2022-11-15T03:40:59;3.03;;;1.50;;
63492;SDS011;49638;47.526;10.028;2022-11-15T03:44:05;3.95;;;1.60;;
63492;SDS011;49638;47.526;10.028;2022-11-15T03:47:21;3.42;;;1.77;;
63492;SDS011;49638;47.526;10.028;2022-11-15T03:50:27;1.98;;;1.60;;
63492;SDS011;49638;47.526;10.028;2022-11-15T03:53:28;3.38;;;1.60;;
63492;SDS011;49638;47.526;10.028;2022-11-15T03:56:30;3.38;;;1.83;;
63492;SDS011;49638;47.526;10.028;2022-11-15T03:59:30;2.78;;;1.70;;
63492;SDS011;49638;47.526;10.028;2022-11-15T04:02:31;2.53;;;1.65;;
63492;SDS011;49638;47.526;10.028;2022-11-15T04:05:31;6.03;;;1.55;;
63492;SDS011;49638;47.526;10.028;2022-11-15T04:08:31;3.63;;;1.50;;
63492;SDS011;49638;47.526;10.028;2022-11-15T04:11:31;2.85;;;1.70;;
63492;SDS011;49638;47.526;10.028;2022-11-15T04:14:32;3.92;;;1.67;;
63492;SDS011;49638;47.526;10.028;2022-11-15T04:17:36;3.55;;;1.50;;
63492;SDS011;49638;47.526;10.028;2022-11-15T04:24:05;3.80;;;1.80;;
63492;SDS011;49638;47.526;10.028;2022-11-15T04:27:12;4.03;;;2.05;;
63492;SDS011;49638;47.526;10.028;2022-11-15T04:30:13;2.65;;;1.65;;
63492;SDS011;49638;47.526;10.028;2022-11-15T04:33:13;6.93;;;1.58;;
63492;SDS011;49638;47.526;10.028;2022-11-15T04:36:14;2.50;;;1.60;;
63492;SDS011;49638;47.526;10.028;2022-11-15T04:39:33;2.88;;;1.95;;
63492;SDS011;49638;47.526;10.028;2022-11-15T04:42:33;4.03;;;2.30;;
63492;SDS011;49638;47.526;10.028;2022-11-15T04:45:33;4.25;;;1.88;;
63492;SDS011;49638;47.526;10.028;2022-11-15T04:48:34;7.13;;;2.17;;
63492;SDS011;49638;47.526;10.028;2022-11-15T04:51:34;3.70;;;1.80;;
63492;SDS011;49638;47.526;10.028;2022-11-15T04:54:34;2.63;;;1.73;;
63492;SDS011;49638;47.526;10.028;2022-11-15T04:57:35;4.90;;;1.63;;
63492;SDS011;49638;47.526;10.028;2022-11-15T05:00:35;2.67;;;1.65;;
63492;SDS011;49638;47.526;10.028;2022-11-15T05:03:35;6.75;;;2.05;;
63492;SDS011;49638;47.526;10.028;2022-11-15T05:06:54;2.15;;;1.60;;
63492;SDS011;49638;47.526;10.028;2022-11-15T05:09:55;3.50;;;1.80;;
63492;SDS011;49638;47.526;10.028;2022-11-15T05:12:55;3.65;;;1.92;;
63492;SDS011;49638;47.526;10.028;2022-11-15T05:15:55;4.30;;;1.90;;
63492;SDS011;49638;47.526;10.028;2022-11-15T05:18:56;3.60;;;1.70;;
63492;SDS011;49638;47.526;10.028;2022-11-15T05:21:56;5.38;;;1.80;;
63492;SDS011;49638;47.526;10.028;2022-11-15T05:24:56;2.78;;;1.73;;
63492;SDS011;49638;47.526;10.028;2022-11-15T05:27:56;2.88;;;1.50;;
63492;SDS011;49638;47.526;10.028;2022-11-15T05:31:01;3.38;;;1.75;;
63492;SDS011;49638;47.526;10.028;2022-11-15T05:34:05;3.28;;;1.50;;
63492;SDS011;49638;47.526;10.028;2022-11-15T05:37:06;3.10;;;1.45;;
63492;SDS011;49638;47.526;10.028;2022-11-15T05:40:06;3.47;;;1.80;;
63492;SDS011;49638;47.526;10.028;2022-11-15T05:43:07;2.45;;;1.30;;
63492;SDS011;49638;47.526;10.028;2022-11-15T05:46:08;3.72;;;1.50;;
63492;SDS011;49638;47.526;10.028;2022-11-15T05:49:10;3.67;;;1.88;;
63492;SDS011;49638;47.526;10.028;2022-11-15T05:52:14;6.38;;;1.70;;
63492;SDS011;49638;47.526;10.028;2022-11-15T05:55:17;2.03;;;1.50;;
63492;SDS011;49638;47.526;10.028;2022-11-15T05:58:18;4.03;;;1.60;;
63492;SDS011;49638;47.526;10.028;2022-11-15T06:01:20;4.60;;;1.98;;
63492;SDS011;49638;47.526;10.028;2022-11-15T06:04:20;3.17;;;1.90;;
63492;SDS011;49638;47.526;10.028;2022-11-15T06:07:20;3.50;;;1.75;;
63492;SDS011;49638;47.526;10.028;2022-11-15T06:10:21;4.05;;;1.95;;
63492;SDS011;49638;47.526;10.028;2022-11-15T06:13:21;5.30;;;1.83;;
63492;SDS011;49638;47.526;10.028;2022-11-15T06:16:21;4.55;;;1.80;;
63492;SDS011;49638;47.526;10.028;2022-11-15T06:19:22;5.90;;;1.98;;
63492;SDS011;49638;47.526;10.028;2022-11-15T06:22:22;3.00;;;1.95;;
63492;SDS011;49638;47.526;10.028;2022-11-15T06:25:22;6.07;;;2.08;;
63492;SDS011;49638;47.526;10.028;2022-11-15T06:28:23;3.13;;;1.70;;
63492;SDS011;49638;47.526;10.028;2022-11-15T06:31:23;4.57;;;2.20;;
63492;SDS011;49638;47.526;10.028;2022-11-15T06:34:23;5.25;;;1.75;;
63492;SDS011;49638;47.526;10.028;2022-11-15T06:37:24;3.15;;;1.70;;
63492;SDS011;49638;47.526;10.028;2022-11-15T06:40:24;4.32;;;1.83;;
63492;SDS011;49638;47.526;10.028;2022-11-15T06:43:24;9.25;;;3.42;;
63492;SDS011;49638;47.526;10.028;2022-11-15T06:46:24;9.50;;;3.17;;
63492;SDS011;49638;47.526;10.028;2022-11-15T06:49:25;7.43;;;2.95;;
63492;SDS011;49638;47.526;10.028;2022-11-15T06:52:26;7.63;;;3.47;;
63492;SDS011;49638;47.526;10.028;2022-11-15T06:55:26;9.10;;;4.68;;
63492;SDS011;49638;47.526;10.028;2022-11-15T06:58:27;5.00;;;2.58;;
63492;SDS011;49638;47.526;10.028;2022-11-15T07:01:27;6.63;;;2.10;;
63492;SDS011;49638;47.526;10.028;2022-11-15T07:04:27;5.50;;;1.85;;
63492;SDS011;49638;47.526;10.028;2022-11-15T07:07:27;4.13;;;2.63;;
63492;SDS011;49638;47.526;10.028;2022-11-15T07:10:28;5.47;;;2.85;;
63492;SDS011;49638;47.526;10.028;2022-11-15T07:13:29;8.18;;;4.25;;
63492;SDS011;49638;47.526;10.028;2022-11-15T07:16:32;7.50;;;3.20;;
63492;SDS011;49638;47.526;10.028;2022-11-15T07:19:33;4.18;;;1.90;;
63492;SDS011;49638;47.526;10.028;2022-11-15T07:22:33;3.17;;;1.70;;
63492;SDS011;49638;47.526;10.028;2022-11-15T07:25:33;4.03;;;1.90;;
63492;SDS011;49638;47.526;10.028;2022-11-15T07:28:34;2.20;;;1.80;;
63492;SDS011;49638;47.526;10.028;2022-11-15T07:31:35;2.40;;;1.90;;
63492;SDS011;49638;47.526;10.028;2022-11-15T07:34:35;4.75;;;1.80;;
63492;SDS011;49638;47.526;10.028;2022-11-15T07:37:35;5.63;;;1.73;;
63492;SDS011;49638;47.526;10.028;2022-11-15T07:40:36;4.45;;;1.83;;
63492;SDS011;49638;47.526;10.028;2022-11-15T07:43:36;4.88;;;1.70;;
63492;SDS011;49638;47.526;10.028;2022-11-15T07:46:36;11.82;;;6.07;;
63492;SDS011;49638;47.526;10.028;2022-11-15T07:49:36;6.97;;;2.92;;
63492;SDS011;49638;47.526;10.028;2022-11-15T07:52:37;3.45;;;2.00;;
63492;SDS011;49638;47.526;10.028;2022-11-15T07:55:39;2.30;;;1.73;;
63492;SDS011;49638;47.526;10.028;2022-11-15T07:58:40;2.38;;;1.90;;
63492;SDS011;49638;47.526;10.028;2022-11-15T08:01:41;3.78;;;1.85;;
63492;SDS011;49638;47.526;10.028;2022-11-15T08:04:41;7.70;;;4.57;;
63492;SDS011;49638;47.526;10.028;2022-11-15T08:07:41;6.03;;;2.55;;
63492;SDS011;49638;47.526;10.028;2022-11-15T08:10:42;4.05;;;2.15;;
63492;SDS011;49638;47.526;10.028;2022-11-15T08:13:42;2.75;;;1.95;;
63492;SDS011;49638;47.526;10.028;2022-11-15T08:16:42;3.28;;;1.77;;
63492;SDS011;49638;47.526;10.028;2022-11-15T08:19:43;5.10;;;2.60;;
63492;SDS011;49638;47.526;10.028;2022-11-15T08:22:43;5.00;;;2.63;;
63492;SDS011;49638;47.526;10.028;2022-11-15T08:25:43;5.13;;;2.75;;
63492;SDS011;49638;47.526;10.028;2022-11-15T08:28:43;5.75;;;3.00;;
63492;SDS011;49638;47.526;10.028;2022-11-15T08:31:44;3.20;;;2.40;;
63492;SDS011;49638;47.526;10.028;2022-11-15T08:34:44;5.22;;;2.30;;
63492;SDS011;49638;47.526;10.028;2022-11-15T08:37:44;4.70;;;2.03;;
63492;SDS011;49638;47.526;10.028;2022-11-15T08:40:45;4.85;;;2.28;;
63492;SDS011;49638;47.526;10.028;2022-11-15T08:43:45;4.78;;;2.58;;
63492;SDS011;49638;47.526;10.028;2022-11-15T08:46:45;5.68;;;2.63;;
63492;SDS011;49638;47.526;10.028;2022-11-15T08:49:46;6.43;;;2.92;;
63492;SDS011;49638;47.526;10.028;2022-11-15T08:52:46;7.03;;;2.67;;
63492;SDS011;49638;47.526;10.028;2022-11-15T08:55:48;6.40;;;2.30;;
63492;SDS011;49638;47.526;10.028;2022-11-15T08:58:48;3.78;;;1.85;;
63492;SDS011;49638;47.526;10.028;2022-11-15T09:01:48;3.75;;;1.67;;
63492;SDS011;49638;47.526;10.028;2022-11-15T09:04:49;2.88;;;1.70;;
63492;SDS011;49638;47.526;10.028;2022-11-15T09:07:52;2.88;;;1.65;;
63492;SDS011;49638;47.526;10.028;2022-11-15T09:10:54;2.13;;;1.70;;
63492;SDS011;49638;47.526;10.028;2022-11-15T09:13:54;2.40;;;1.50;;
63492;SDS011;49638;47.526;10.028;2022-11-15T09:16:54;6.05;;;2.00;;
63492;SDS011;49638;47.526;10.028;2022-11-15T09:19:55;4.30;;;2.35;;
63492;SDS011;49638;47.526;10.028;2022-11-15T09:22:58;5.90;;;2.70;;
63492;SDS011;49638;47.526;10.028;2022-11-15T09:26:02;2.97;;;1.98;;
63492;SDS011;49638;47.526;10.028;2022-11-15T09:29:04;3.80;;;2.40;;
63492;SDS011;49638;47.526;10.028;2022-11-15T09:32:04;4.43;;;2.00;;
63492;SDS011;49638;47.526;10.028;2022-11-15T09:35:05;7.82;;;2.30;;
63492;SDS011;49638;47.526;10.028;2022-11-15T09:38:06;6.13;;;2.30;;
63492;SDS011;49638;47.526;10.028;2022-11-15T09:57:15;4.40;;;2.00;;
63492;SDS011;49638;47.526;10.028;2022-11-15T10:03:42;2.13;;;1.50;;
63492;SDS011;49638;47.526;10.028;2022-11-15T10:06:45;3.47;;;1.80;;
63492;SDS011;49638;47.526;10.028;2022-11-15T10:13:02;2.10;;;1.90;;
63492;SDS011;49638;47.526;10.028;2022-11-15T10:23:18;3.72;;;1.77;;
63492;SDS011;49638;47.526;10.028;2022-11-15T10:26:20;3.60;;;1.50;;
63492;SDS011;49638;47.526;10.028;2022-11-15T10:29:21;2.80;;;1.90;;
63492;SDS011;49638;47.526;10.028;2022-11-15T10:32:23;4.47;;;1.67;;
63492;SDS011;49638;47.526;10.028;2022-11-15T10:38:24;2.55;;;1.50;;
63492;SDS011;49638;47.526;10.028;2022-11-15T10:44:31;2.80;;;1.67;;
63492;SDS011;49638;47.526;10.028;2022-11-15T10:47:32;4.63;;;1.60;;
63492;SDS011;49638;47.526;10.028;2022-11-15T10:50:32;3.88;;;1.75;;
63492;SDS011;49638;47.526;10.028;2022-11-15T10:53:44;8.73;;;1.40;;
63492;SDS011;49638;47.526;10.028;2022-11-15T10:56:48;4.13;;;1.40;;
63492;SDS011;49638;47.526;10.028;2022-11-15T10:59:51;3.20;;;1.50;;
63492;SDS011;49638;47.526;10.028;2022-11-15T11:03:40;2.92;;;1.40;;
63492;SDS011;49638;47.526;10.028;2022-11-15T11:07:20;6.05;;;1.60;;
63492;SDS011;49638;47.526;10.028;2022-11-15T11:10:21;3.95;;;1.98;;
63492;SDS011;49638;47.526;10.028;2022-11-15T11:13:22;2.65;;;1.42;;
63492;SDS011;49638;47.526;10.028;2022-11-15T11:16:34;2.15;;;1.50;;
63492;SDS011;49638;47.526;10.028;2022-11-15T11:20:01;4.20;;;1.65;;
63492;SDS011;49638;47.526;10.028;2022-11-15T11:23:18;4.20;;;1.67;;
63492;SDS011;49638;47.526;10.028;2022-11-15T11:26:35;6.40;;;1.77;;
63492;SDS011;49638;47.526;10.028;2022-11-15T11:39:30;5.20;;;2.25;;
63492;SDS011;49638;47.526;10.028;2022-11-15T11:43:20;3.92;;;1.75;;
63492;SDS011;49638;47.526;10.028;2022-11-15T11:50:00;3.90;;;1.50;;
63492;SDS011;49638;47.526;10.028;2022-11-15T11:53:31;3.38;;;1.50;;
63492;SDS011;49638;47.526;10.028;2022-11-15T11:56:39;2.92;;;1.30;;
63492;SDS011;49638;47.526;10.028;2022-11-15T12:00:00;2.47;;;1.30;;
63492;SDS011;49638;47.526;10.028;2022-11-15T12:03:24;2.03;;;1.33;;
63492;SDS011;49638;47.526;10.028;2022-11-15T12:09:55;4.05;;;1.30;;
63492;SDS011;49638;47.526;10.028;2022-11-15T12:13:04;2.47;;;1.20;;
63492;SDS011;49638;47.526;10.028;2022-11-15T12:16:21;4.05;;;1.50;;
63492;SDS011;49638;47.526;10.028;2022-11-15T12:19:26;4.18;;;1.80;;
63492;SDS011;49638;47.526;10.028;2022-11-15T12:22:33;5.82;;;2.00;;
63492;SDS011;49638;47.526;10.028;2022-11-15T12:26:16;2.60;;;1.60;;
63492;SDS011;49638;47.526;10.028;2022-11-15T12:29:20;3.95;;;1.80;;
63492;SDS011;49638;47.526;10.028;2022-11-15T12:32:34;3.58;;;2.10;;
63492;SDS011;49638;47.526;10.028;2022-11-15T12:35:38;3.70;;;1.88;;
63492;SDS011;49638;47.526;10.028;2022-11-15T12:45:01;2.92;;;2.22;;
63492;SDS011;49638;47.526;10.028;2022-11-15T12:51:19;4.97;;;2.42;;
63492;SDS011;49638;47.526;10.028;2022-11-15T12:57:28;4.13;;;2.70;;
63492;SDS011;49638;47.526;10.028;2022-11-15T13:03:31;5.40;;;2.40;;
63492;SDS011;49638;47.526;10.028;2022-11-15T13:06:40;2.80;;;2.33;;
63492;SDS011;49638;47.526;10.028;2022-11-15T13:15:55;3.80;;;2.30;;
63492;SDS011;49638;47.526;10.028;2022-11-15T13:18:58;6.13;;;2.33;;
63492;SDS011;49638;47.526;10.028;2022-11-15T13:22:04;4.22;;;2.58;;
63492;SDS011;49638;47.526;10.028;2022-11-15T13:28:45;5.43;;;2.50;;
63492;SDS011;49638;47.526;10.028;2022-11-15T13:31:49;2.28;;;2.08;;
63492;SDS011;49638;47.526;10.028;2022-11-15T13:34:49;5.40;;;3.13;;
63492;SDS011;49638;47.526;10.028;2022-11-15T13:37:53;6.85;;;3.78;;
63492;SDS011;49638;47.526;10.028;2022-11-15T13:40:55;7.15;;;3.83;;
63492;SDS011;49638;47.526;10.028;2022-11-15T13:43:57;5.47;;;4.00;;
63492;SDS011;49638;47.526;10.028;2022-11-15T13:47:02;6.47;;;4.07;;
63492;SDS011;49638;47.526;10.028;2022-11-15T13:50:03;7.32;;;3.83;;
63492;SDS011;49638;47.526;10.028;2022-11-15T13:53:05;6.63;;;4.13;;
63492;SDS011;49638;47.526;10.028;2022-11-15T13:56:06;4.65;;;3.47;;
63492;SDS011;49638;47.526;10.028;2022-11-15T13:59:10;7.55;;;4.57;;
63492;SDS011;49638;47.526;10.028;2022-11-15T14:02:34;9.68;;;4.88;;
63492;SDS011;49638;47.526;10.028;2022-11-15T14:05:36;14.13;;;7.30;;
63492;SDS011;49638;47.526;10.028;2022-11-15T14:08:36;18.63;;;9.45;;
63492;SDS011;49638;47.526;10.028;2022-11-15T14:11:37;10.77;;;6.40;;
63492;SDS011;49638;47.526;10.028;2022-11-15T14:14:49;10.50;;;6.13;;
63492;SDS011;49638;47.526;10.028;2022-11-15T14:17:50;9.20;;;5.45;;
63492;SDS011;49638;47.526;10.028;2022-11-15T14:20:50;9.27;;;5.53;;
63492;SDS011;49638;47.526;10.028;2022-11-15T14:24:19;7.88;;;5.10;;
63492;SDS011;49638;47.526;10.028;2022-11-15T14:27:25;8.80;;;5.13;;
63492;SDS011;49638;47.526;10.028;2022-11-15T14:30:27;11.20;;;5.22;;
63492;SDS011;49638;47.526;10.028;2022-11-15T14:33:31;10.55;;;6.05;;
63492;SDS011;49638;47.526;10.028;2022-11-15T14:36:33;11.63;;;6.75;;
63492;SDS011;49638;47.526;10.028;2022-11-15T14:39:34;7.82;;;5.55;;
63492;SDS011;49638;47.526;10.028;2022-11-15T14:42:34;8.35;;;4.70;;
63492;SDS011;49638;47.526;10.028;2022-11-15T14:45:34;7.60;;;4.70;;
63492;SDS011;49638;47.526;10.028;2022-11-15T14:48:34;8.23;;;4.70;;
63492;SDS011;49638;47.526;10.028;2022-11-15T14:51:35;7.07;;;4.10;;
63492;SDS011;49638;47.526;10.028;2022-11-15T14:54:35;6.00;;;3.88;;
63492;SDS011;49638;47.526;10.028;2022-11-15T14:57:35;7.00;;;3.53;;
63492;SDS011;49638;47.526;10.028;2022-11-15T15:00:37;4.55;;;3.10;;
63492;SDS011;49638;47.526;10.028;2022-11-15T15:03:39;6.18;;;3.47;;
63492;SDS011;49638;47.526;10.028;2022-11-15T15:06:39;6.47;;;3.47;;
63492;SDS011;49638;47.526;10.028;2022-11-15T15:09:40;7.30;;;3.60;;
63492;SDS011;49638;47.526;10.028;2022-11-15T15:12:41;6.10;;;3.50;;
63492;SDS011;49638;47.526;10.028;2022-11-15T15:15:41;3.55;;;2.25;;
63492;SDS011;49638;47.526;10.028;2022-11-15T15:18:42;2.70;;;1.70;;
63492;SDS011;49638;47.526;10.028;2022-11-15T15:21:43;6.93;;;1.75;;
63492;SDS011;49638;47.526;10.028;2022-11-15T15:24:43;4.75;;;1.50;;
63492;SDS011;49638;47.526;10.028;2022-11-15T15:27:45;6.05;;;1.50;;
63492;SDS011;49638;47.526;10.028;2022-11-15T15:30:45;10.45;;;2.00;;
63492;SDS011;49638;47.526;10.028;2022-11-15T15:33:45;2.78;;;1.50;;
63492;SDS011;49638;47.526;10.028;2022-11-15T15:36:46;1.75;;;1.38;;
63492;SDS011;49638;47.526;10.028;2022-11-15T15:39:46;2.00;;;1.30;;
63492;SDS011;49638;47.526;10.028;2022-11-15T15:42:47;3.22;;;1.60;;
63492;SDS011;49638;47.526;10.028;2022-11-15T15:45:47;5.22;;;1.40;;
63492;SDS011;49638;47.526;10.028;2022-11-15T15:48:48;2.95;;;1.52;;
63492;SDS011;49638;47.526;10.028;2022-11-15T15:51:48;1.73;;;1.27;;
63492;SDS011;49638;47.526;10.028;2022-11-15T15:54:48;2.45;;;1.55;;
63492;SDS011;49638;47.526;10.028;2022-11-15T15:57:49;3.63;;;1.52;;
63492;SDS011;49638;47.526;10.028;2022-11-15T16:00:50;2.53;;;1.58;;
63492;SDS011;49638;47.526;10.028;2022-11-15T16:03:50;2.22;;;1.50;;
63492;SDS011;49638;47.526;10.028;2022-11-15T16:06:50;1.88;;;1.40;;
63492;SDS011;49638;47.526;10.028;2022-11-15T16:09:52;3.15;;;1.52;;
63492;SDS011;49638;47.526;10.028;2022-11-15T16:13:03;2.55;;;1.33;;
63492;SDS011;49638;47.526;10.028;2022-11-15T16:16:04;5.28;;;1.85;;
63492;SDS011;49638;47.526;10.028;2022-11-15T16:19:10;2.45;;;1.50;;
63492;SDS011;49638;47.526;10.028;2022-11-15T16:22:11;2.33;;;1.80;;
63492;SDS011;49638;47.526;10.028;2022-11-15T16:25:11;3.97;;;2.30;;
63492;SDS011;49638;47.526;10.028;2022-11-15T16:31:22;4.82;;;2.28;;
63492;SDS011;49638;47.526;10.028;2022-11-15T16:34:22;3.60;;;2.17;;
63492;SDS011;49638;47.526;10.028;2022-11-15T16:37:24;4.47;;;2.78;;
63492;SDS011;49638;47.526;10.028;2022-11-15T16:40:28;5.55;;;2.92;;
63492;SDS011;49638;47.526;10.028;2022-11-15T16:43:32;12.30;;;4.05;;
63492;SDS011;49638;47.526;10.028;2022-11-15T16:46:32;73.22;;;21.45;;
63492;SDS011;49638;47.526;10.028;2022-11-15T16:49:33;19.42;;;6.20;;
63492;SDS011;49638;47.526;10.028;2022-11-15T16:52:33;6.68;;;2.92;;
63492;SDS011;49638;47.526;10.028;2022-11-15T16:55:33;5.65;;;2.55;;
63492;SDS011;49638;47.526;10.028;2022-11-15T16:58:33;4.45;;;2.10;;
63492;SDS011;49638;47.526;10.028;2022-11-15T17:01:37;4.60;;;3.13;;
63492;SDS011;49638;47.526;10.028;2022-11-15T17:04:45;3.88;;;2.80;;
63492;SDS011;49638;47.526;10.028;2022-11-15T17:07:46;6.70;;;2.85;;
63492;SDS011;49638;47.526;10.028;2022-11-15T17:10:49;4.22;;;1.88;;
63492;SDS011;49638;47.526;10.028;2022-11-15T17:13:49;6.80;;;2.90;;
63492;SDS011;49638;47.526;10.028;2022-11-15T17:16:50;4.72;;;3.00;;
63492;SDS011;49638;47.526;10.028;2022-11-15T17:19:51;3.10;;;2.03;;
63492;SDS011;49638;47.526;10.028;2022-11-15T17:22:52;4.65;;;2.30;;
63492;SDS011;49638;47.526;10.028;2022-11-15T17:26:01;3.92;;;2.40;;
63492;SDS011;49638;47.526;10.028;2022-11-15T17:29:04;4.70;;;2.80;;
63492;SDS011;49638;47.526;10.028;2022-11-15T17:32:07;4.68;;;2.60;;
63492;SDS011;49638;47.526;10.028;2022-11-15T17:35:08;3.85;;;3.00;;
63492;SDS011;49638;47.526;10.028;2022-11-15T17:38:10;4.93;;;2.65;;
63492;SDS011;49638;47.526;10.028;2022-11-15T17:41:13;2.78;;;1.90;;
63492;SDS011;49638;47.526;10.028;2022-11-15T17:44:15;4.75;;;1.98;;
63492;SDS011;49638;47.526;10.028;2022-11-15T17:47:15;3.15;;;2.20;;
63492;SDS011;49638;47.526;10.028;2022-11-15T17:50:15;3.72;;;2.40;;
63492;SDS011;49638;47.526;10.028;2022-11-15T17:53:16;5.50;;;2.80;;
63492;SDS011;49638;47.526;10.028;2022-11-15T17:56:18;3.13;;;2.13;;
63492;SDS011;49638;47.526;10.028;2022-11-15T17:59:19;3.05;;;1.60;;
63492;SDS011;49638;47.526;10.028;2022-11-15T18:02:20;3.83;;;1.98;;
63492;SDS011;49638;47.526;10.028;2022-11-15T18:05:20;3.75;;;1.58;;
63492;SDS011;49638;47.526;10.028;2022-11-15T18:08:20;5.10;;;1.77;;
63492;SDS011;49638;47.526;10.028;2022-11-15T18:11:32;3.67;;;2.22;;
63492;SDS011;49638;47.526;10.028;2022-11-15T18:14:34;13.38;;;4.82;;
63492;SDS011;49638;47.526;10.028;2022-11-15T18:17:35;3.83;;;2.63;;
63492;SDS011;49638;47.526;10.028;2022-11-15T18:20:36;2.50;;;1.42;;
63492;SDS011;49638;47.526;10.028;2022-11-15T18:23:36;1.85;;;1.25;;
63492;SDS011;49638;47.526;10.028;2022-11-15T18:26:37;20.33;;;8.52;;
63492;SDS011;49638;47.526;10.028;2022-11-15T18:29:37;5.68;;;2.50;;
63492;SDS011;49638;47.526;10.028;2022-11-15T18:32:38;53.38;;;20.13;;
63492;SDS011;49638;47.526;10.028;2022-11-15T18:35:38;36.38;;;14.55;;
63492;SDS011;49638;47.526;10.028;2022-11-15T18:38:38;16.77;;;7.57;;
63492;SDS011;49638;47.526;10.028;2022-11-15T18:41:39;13.63;;;6.10;;
63492;SDS011;49638;47.526;10.028;2022-11-15T18:44:39;8.98;;;4.53;;
63492;SDS011;49638;47.526;10.028;2022-11-15T18:47:40;6.70;;;4.10;;
63492;SDS011;49638;47.526;10.028;2022-11-15T18:50:40;8.65;;;4.32;;
63492;SDS011;49638;47.526;10.028;2022-11-15T18:53:40;9.98;;;4.40;;
63492;SDS011;49638;47.526;10.028;2022-11-15T18:56:42;9.98;;;4.85;;
63492;SDS011;49638;47.526;10.028;2022-11-15T18:59:44;11.30;;;5.22;;
63492;SDS011;49638;47.526;10.028;2022-11-15T19:02:44;8.15;;;4.80;;
63492;SDS011;49638;47.526;10.028;2022-11-15T19:05:45;4.78;;;2.95;;
63492;SDS011;49638;47.526;10.028;2022-11-15T19:08:46;4.20;;;2.50;;
63492;SDS011;49638;47.526;10.028;2022-11-15T19:11:48;5.80;;;3.40;;
63492;SDS011;49638;47.526;10.028;2022-11-15T19:14:50;7.32;;;4.20;;
63492;SDS011;49638;47.526;10.028;2022-11-15T19:17:50;10.10;;;6.78;;
63492;SDS011;49638;47.526;10.028;2022-11-15T19:20:50;12.20;;;5.93;;
63492;SDS011;49638;47.526;10.028;2022-11-15T19:23:51;8.38;;;5.18;;
63492;SDS011;49638;47.526;10.028;2022-11-15T19:26:53;8.23;;;5.07;;
63492;SDS011;49638;47.526;10.028;2022-11-15T19:29:53;7.05;;;4.68;;
63492;SDS011;49638;47.526;10.028;2022-11-15T19:32:54;9.85;;;5.47;;
63492;SDS011;49638;47.526;10.028;2022-11-15T19:36:00;10.70;;;6.75;;
63492;SDS011;49638;47.526;10.028;2022-11-15T19:39:03;8.05;;;4.97;;
63492;SDS011;49638;47.526;10.028;2022-11-15T19:42:08;5.70;;;3.75;;
63492;SDS011;49638;47.526;10.028;2022-11-15T19:45:09;5.88;;;3.25;;
63492;SDS011;49638;47.526;10.028;2022-11-15T19:48:09;4.30;;;2.17;;
63492;SDS011;49638;47.526;10.028;2022-11-15T19:51:10;5.13;;;3.80;;
63492;SDS011;49638;47.526;10.028;2022-11-15T19:54:18;10.93;;;8.18;;
63492;SDS011;49638;47.526;10.028;2022-11-15T19:57:18;14.55;;;11.50;;
63492;SDS011;49638;47.526;10.028;2022-11-15T20:00:19;13.82;;;11.00;;